Time;durP1;ratioP1;P1;durP2;ratioP2;P2;SDS_P1;SDS_P2;PMS_P1;PMS_P2;Temp;Humidity;BMP_temperature;BMP_pressure;BME280_temperature;BME280_humidity;BME280_pressure;Samples;Min_cycle;Max_cycle;Signal;HPM_P1;HPM_P2
2021/08/31 00:00:29;;;;;;;28.27;14.07;;;;;;;13.71;99.70;102604.94;6181777;23;20067;-86
2021/08/31 00:02:54;;;;;;;24.80;14.73;;;;;;;13.75;99.77;102612.13;6185800;23;20044;-84
2021/08/31 00:05:20;;;;;;;30.70;13.73;;;;;;;13.82;99.51;102607.94;6159197;23;20107;-86
2021/08/31 00:07:46;;;;;;;26.85;13.63;;;;;;;13.85;99.64;102605.41;6186513;23;20008;-82
2021/08/31 00:10:12;;;;;;;25.38;12.93;;;;;;;13.86;99.50;102604.53;6184166;23;20017;-79
2021/08/31 00:12:38;;;;;;;28.27;11.63;;;;;;;13.89;98.84;102611.66;6185854;23;20005;-84
2021/08/31 00:15:10;;;;;;;24.75;12.85;;;;;;;13.88;98.99;102612.53;6185222;23;20443;-83
2021/08/31 00:17:36;;;;;;;29.77;12.38;;;;;;;13.87;99.07;102616.03;6186080;23;20063;-79
2021/08/31 00:20:02;;;;;;;29.00;12.88;;;;;;;13.88;99.06;102618.72;6185591;23;20041;-81
2021/08/31 00:22:28;;;;;;;28.13;13.18;;;;;;;13.90;99.26;102619.66;6186804;23;20012;-85
2021/08/31 00:24:54;;;;;;;30.48;12.85;;;;;;;13.94;99.27;102623.31;6187027;23;20012;-85
2021/08/31 00:27:19;;;;;;;27.85;12.55;;;;;;;13.98;99.44;102619.91;6186265;23;20082;-85
2021/08/31 00:29:45;;;;;;;32.03;12.95;;;;;;;14.00;99.65;102619.09;6186168;23;20080;-82
2021/08/31 00:32:30;;;;;;;34.88;13.20;;;;;;;14.03;99.60;102620.94;6184070;23;20040;-83
2021/08/31 00:34:56;;;;;;;26.20;12.30;;;;;;;14.03;99.42;102628.91;6185577;23;20020;-81
2021/08/31 00:37:41;;;;;;;25.02;12.90;;;;;;;13.99;99.19;102624.34;6185162;23;20009;-82
2021/08/31 00:40:07;;;;;;;29.60;11.63;;;;;;;13.96;98.94;102624.28;6185862;23;20005;-82
2021/08/31 00:42:33;;;;;;;32.25;12.70;;;;;;;13.90;98.91;102626.72;6185751;23;20001;-79
2021/08/31 00:44:59;;;;;;;24.30;11.68;;;;;;;13.82;98.81;102624.72;6184909;23;20294;-84
2021/08/31 00:47:24;;;;;;;23.73;12.07;;;;;;;13.76;98.47;102629.81;6185122;23;20103;-82
2021/08/31 00:49:54;;;;;;;24.30;12.40;;;;;;;13.70;98.23;102624.34;6185233;23;20013;-83
2021/08/31 00:52:40;;;;;;;29.08;11.63;;;;;;;13.59;98.32;102629.28;6185650;23;20009;-82
2021/08/31 00:55:08;;;;;;;36.67;11.80;;;;;;;13.53;98.47;102630.81;6185288;23;20063;-86
2021/08/31 00:57:35;;;;;;;22.80;12.48;;;;;;;13.46;98.30;102625.31;6184174;23;20436;-80
2021/08/31 01:00:00;;;;;;;34.08;13.75;;;;;;;13.41;98.32;102626.91;6159559;23;20424;-83
2021/08/31 01:02:29;;;;;;;28.15;13.07;;;;;;;13.36;98.69;102624.97;6181553;23;20009;-82
2021/08/31 01:04:55;;;;;;;35.45;13.43;;;;;;;13.32;98.77;102631.84;6186056;23;20033;-84
2021/08/31 01:07:21;;;;;;;27.10;13.07;;;;;;;13.29;98.78;102630.03;6184995;23;20447;-82
2021/08/31 01:09:49;;;;;;;31.40;12.75;;;;;;;13.25;98.90;102630.75;6184854;23;20001;-80
2021/08/31 01:12:18;;;;;;;31.10;13.25;;;;;;;13.22;98.96;102629.75;6184917;23;20001;-84
2021/08/31 01:15:03;;;;;;;26.63;13.38;;;;;;;13.18;99.27;102638.41;6185160;23;20428;-83
2021/08/31 01:17:29;;;;;;;30.38;13.23;;;;;;;13.13;99.52;102640.88;6185283;23;20008;-81
2021/08/31 01:19:57;;;;;;;32.63;13.75;;;;;;;13.09;99.40;102641.63;6185590;23;20404;-81
2021/08/31 01:22:22;;;;;;;33.38;13.73;;;;;;;13.07;99.50;102638.94;6184373;23;20076;-80
2021/08/31 01:24:54;;;;;;;30.20;13.52;;;;;;;13.05;99.67;102638.00;6185677;23;20025;-81
2021/08/31 01:27:21;;;;;;;30.63;14.63;;;;;;;13.05;99.86;102638.00;6134301;23;20448;-81
2021/08/31 01:29:49;;;;;;;28.60;13.93;;;;;;;13.06;100.00;102644.16;6185529;23;20012;-79
2021/08/31 01:32:15;;;;;;;29.52;13.95;;;;;;;13.11;100.00;102647.88;6158936;23;20016;-87
2021/08/31 01:34:40;;;;;;;36.38;15.05;;;;;;;13.18;100.00;102651.63;6185302;23;20009;-83
2021/08/31 01:37:25;;;;;;;32.60;15.73;;;;;;;13.27;100.00;102657.25;6185237;23;20092;-82
2021/08/31 01:39:51;;;;;;;38.13;15.23;;;;;;;13.32;100.00;102648.63;6184498;23;20063;-83
2021/08/31 01:42:36;;;;;;;31.50;15.60;;;;;;;13.37;100.00;102650.56;6184798;23;20373;-87
2021/08/31 01:45:02;;;;;;;36.60;16.60;;;;;;;13.43;100.00;102656.94;6184611;23;20008;-87
2021/08/31 01:47:27;;;;;;;34.70;16.90;;;;;;;13.45;100.00;102655.25;6184455;23;20048;-82
2021/08/31 01:49:53;;;;;;;35.55;16.20;;;;;;;13.46;100.00;102653.53;6185144;23;20488;-85
2021/08/31 01:52:19;;;;;;;32.17;14.68;;;;;;;13.43;100.00;102651.66;6158904;23;20005;-84
2021/08/31 01:54:44;;;;;;;40.92;15.80;;;;;;;13.39;100.00;102652.41;6184951;23;20017;-83
2021/08/31 01:57:10;;;;;;;31.63;14.40;;;;;;;13.38;100.00;102657.66;6184067;23;20055;-81
2021/08/31 01:59:35;;;;;;;38.97;15.55;;;;;;;13.36;100.00;102654.97;6184119;23;20370;-83
2021/08/31 02:02:01;;;;;;;32.47;14.70;;;;;;;13.35;100.00;102652.19;6153999;23;20063;-83
2021/08/31 02:04:26;;;;;;;32.90;14.05;;;;;;;13.32;100.00;102663.56;6184742;23;20020;-83
2021/08/31 02:06:52;;;;;;;29.08;13.90;;;;;;;13.29;100.00;102660.81;6185183;23;20009;-85
2021/08/31 02:09:17;;;;;;;36.25;14.63;;;;;;;13.26;100.00;102660.72;6184832;23;20008;-79
2021/08/31 02:11:43;;;;;;;30.40;15.20;;;;;;;13.22;100.00;102665.00;6184281;23;20067;-81
2021/08/31 02:14:08;;;;;;;30.15;13.43;;;;;;;13.18;100.00;102656.91;6184629;23;20008;-78
2021/08/31 02:16:35;;;;;;;38.47;14.40;;;;;;;13.16;100.00;102663.03;6184383;23;20029;-77
2021/08/31 02:19:01;;;;;;;32.92;13.57;;;;;;;13.12;100.00;102658.50;6184804;23;20093;-79
2021/08/31 02:21:26;;;;;;;29.23;13.27;;;;;;;13.08;100.00;102655.72;6185319;23;20382;-86
2021/08/31 02:23:52;;;;;;;28.25;14.15;;;;;;;13.04;100.00;102649.41;6185038;23;20444;-80
2021/08/31 02:26:17;;;;;;;26.10;11.63;;;;;;;13.01;100.00;102659.88;6184356;23;20067;-80
2021/08/31 02:28:43;;;;;;;31.10;12.95;;;;;;;12.98;99.91;102649.16;6184543;23;20428;-83
2021/08/31 02:31:08;;;;;;;25.23;12.43;;;;;;;12.97;99.77;102650.03;6184769;23;20017;-80
2021/08/31 02:33:34;;;;;;;26.02;12.63;;;;;;;12.93;99.87;102650.78;6184623;23;20004;-79
2021/08/31 02:35:59;;;;;;;30.13;13.43;;;;;;;12.90;100.00;102645.34;6186616;23;20086;-82
2021/08/31 02:38:25;;;;;;;30.02;13.82;;;;;;;12.84;100.00;102647.78;6185632;23;20019;-80
2021/08/31 02:40:50;;;;;;;27.58;13.32;;;;;;;12.80;100.00;102649.41;6187321;23;20037;-81
2021/08/31 02:43:16;;;;;;;25.83;13.23;;;;;;;12.77;100.00;102646.66;6186721;23;20028;-80
2021/08/31 02:46:01;;;;;;;31.08;13.45;;;;;;;12.73;100.00;102647.41;6186288;23;20013;-83
2021/08/31 02:48:26;;;;;;;25.85;12.80;;;;;;;12.68;100.00;102647.22;6185190;23;20005;-81
2021/08/31 02:50:52;;;;;;;22.08;12.52;;;;;;;12.64;100.00;102645.31;6186743;23;20392;-83
2021/08/31 02:53:17;;;;;;;23.15;12.85;;;;;;;12.59;100.00;102645.16;6186323;23;20447;-83
2021/08/31 02:55:43;;;;;;;27.20;14.35;;;;;;;12.55;100.00;102648.50;6186839;23;20001;-84
2021/08/31 02:58:09;;;;;;;29.58;11.88;;;;;;;12.51;100.00;102649.25;6187248;23;20036;-82
2021/08/31 03:00:37;;;;;;;23.95;12.25;;;;;;;12.48;100.00;102655.31;6181205;23;20023;-79
2021/08/31 03:03:03;;;;;;;25.38;12.73;;;;;;;12.45;100.00;102646.34;6184921;23;20017;-82
2021/08/31 03:05:28;;;;;;;28.20;12.27;;;;;;;12.42;100.00;102649.78;6185495;23;20012;-78
2021/08/31 03:07:54;;;;;;;26.85;12.07;;;;;;;12.40;100.00;102651.47;6185480;23;20008;-82
2021/08/31 03:10:39;;;;;;;23.45;11.32;;;;;;;12.38;100.00;102641.69;6185442;23;20379;-79
2021/08/31 03:13:05;;;;;;;25.40;11.50;;;;;;;12.37;100.00;102650.44;6186028;23;20017;-80
2021/08/31 03:15:30;;;;;;;34.00;12.55;;;;;;;12.37;100.00;102650.44;6159244;23;20017;-83
2021/08/31 03:17:56;;;;;;;31.35;12.13;;;;;;;12.37;100.00;102653.09;6185424;23;20025;-78
2021/08/31 03:20:21;;;;;;;29.10;12.85;;;;;;;12.36;100.00;102651.28;6159481;23;20340;-80
2021/08/31 03:22:47;;;;;;;28.60;11.98;;;;;;;12.36;100.00;102648.63;6185982;23;20080;-82
2021/08/31 03:25:12;;;;;;;22.90;11.82;;;;;;;12.36;100.00;102654.84;6185245;23;20059;-81
2021/08/31 03:27:38;;;;;;;30.98;11.95;;;;;;;12.37;100.00;102651.38;6185852;23;20052;-83
2021/08/31 03:30:05;;;;;;;25.13;11.35;;;;;;;12.38;99.89;102645.22;6159642;23;20384;-81
2021/08/31 03:32:30;;;;;;;30.45;14.02;;;;;;;12.41;99.86;102648.00;6185720;23;20310;-82
2021/08/31 03:34:56;;;;;;;21.55;10.10;;;;;;;12.42;100.00;102644.50;6159399;23;20005;-81
2021/08/31 03:37:21;;;;;;;19.33;11.23;;;;;;;12.41;100.00;102647.09;6185109;23;20013;-77
2021/08/31 03:39:47;;;;;;;25.92;12.30;;;;;;;12.39;99.99;102654.94;6184043;23;20016;-78
2021/08/31 03:42:12;;;;;;;26.75;11.75;;;;;;;12.36;100.00;102657.47;6159899;23;20005;-83
2021/08/31 03:44:38;;;;;;;29.13;12.55;;;;;;;12.35;100.00;102665.34;6185502;23;20009;-79
2021/08/31 03:47:03;;;;;;;22.75;12.20;;;;;;;12.31;100.00;102667.84;6185606;23;20005;-83
2021/08/31 03:49:29;;;;;;;29.00;11.40;;;;;;;12.28;100.00;102662.44;6184810;23;20310;-82
2021/08/31 03:51:54;;;;;;;31.05;12.40;;;;;;;12.26;100.00;102660.59;6185609;23;20062;-80
2021/08/31 03:54:20;;;;;;;22.02;12.27;;;;;;;12.25;100.00;102664.97;6185011;23;20383;-79
2021/08/31 03:56:45;;;;;;;25.48;11.98;;;;;;;12.23;100.00;102657.84;6185118;23;20005;-81
2021/08/31 03:59:11;;;;;;;26.90;11.70;;;;;;;12.21;100.00;102662.16;6185544;23;20063;-85
2021/08/31 04:01:36;;;;;;;24.17;10.63;;;;;;;12.20;100.00;102658.63;6180570;23;20373;-79
2021/08/31 04:04:02;;;;;;;22.55;11.63;;;;;;;12.19;100.00;102661.19;6185785;23;20384;-78
2021/08/31 04:06:47;;;;;;;23.42;11.18;;;;;;;12.17;100.00;102657.59;6185210;23;20026;-81
2021/08/31 04:09:15;;;;;;;23.10;11.85;;;;;;;12.16;100.00;102656.69;6185829;23;20015;-78
2021/08/31 04:11:40;;;;;;;27.17;12.13;;;;;;;12.16;100.00;102656.69;6185487;23;20005;-82
2021/08/31 04:14:05;;;;;;;24.70;12.00;;;;;;;12.14;100.00;102667.19;6185822;23;20017;-81
2021/08/31 04:16:31;;;;;;;26.35;11.35;;;;;;;12.13;100.00;102667.16;6185108;23;20008;-79
2021/08/31 04:18:56;;;;;;;20.73;10.15;;;;;;;12.11;100.00;102664.44;6184372;23;20100;-83
2021/08/31 04:21:22;;;;;;;27.88;12.50;;;;;;;12.11;100.00;102680.28;6184980;23;20001;-81
2021/08/31 04:23:47;;;;;;;24.50;12.30;;;;;;;12.12;100.00;102682.06;6185128;23;20024;-80
2021/08/31 04:26:13;;;;;;;27.10;12.73;;;;;;;12.12;100.00;102683.81;6185015;23;20072;-81
2021/08/31 04:28:39;;;;;;;30.17;12.95;;;;;;;12.11;100.00;102689.91;6185044;23;20009;-82
2021/08/31 04:31:04;;;;;;;36.20;13.70;;;;;;;12.09;100.00;102692.50;6183134;23;20464;-78
2021/08/31 04:33:50;;;;;;;25.63;11.60;;;;;;;12.09;100.00;102692.50;6185011;23;20016;-81
2021/08/31 04:36:36;;;;;;;34.17;13.65;;;;;;;12.09;100.00;102687.22;6184696;23;20318;-78
2021/08/31 04:39:02;;;;;;;31.75;12.32;;;;;;;12.08;100.00;102688.06;6184863;23;20028;-80
2021/08/31 04:41:27;;;;;;;31.30;13.55;;;;;;;12.07;100.00;102688.91;6184570;23;20001;-80
2021/08/31 04:43:52;;;;;;;30.83;13.82;;;;;;;12.05;100.00;102680.03;6184985;23;20008;-79
2021/08/31 04:46:18;;;;;;;31.05;13.75;;;;;;;12.05;100.00;102682.66;6184811;23;20041;-84
2021/08/31 04:48:43;;;;;;;28.10;13.68;;;;;;;12.03;100.00;102688.72;6184669;23;20108;-80
2021/08/31 04:51:09;;;;;;;22.80;11.43;;;;;;;12.00;100.00;102691.25;6184719;23;20115;-81
2021/08/31 04:53:34;;;;;;;29.17;13.38;;;;;;;11.98;100.00;102692.06;6185564;23;20001;-78
2021/08/31 04:56:00;;;;;;;25.48;12.20;;;;;;;11.97;100.00;102689.38;6184431;23;20016;-81
2021/08/31 04:58:25;;;;;;;26.98;12.35;;;;;;;11.96;100.00;102690.19;6184945;23;20087;-78
2021/08/31 05:00:51;;;;;;;29.08;12.57;;;;;;;11.95;100.00;102693.66;6179881;23;20008;-81
2021/08/31 05:03:36;;;;;;;22.20;11.80;;;;;;;11.97;100.00;102702.56;6185406;23;20005;-82
2021/08/31 05:06:02;;;;;;;26.40;13.15;;;;;;;11.99;100.00;102703.50;6185628;23;20017;-79
2021/08/31 05:08:27;;;;;;;28.73;12.38;;;;;;;11.98;100.00;102705.25;6184741;23;20032;-81
2021/08/31 05:10:52;;;;;;;26.10;12.50;;;;;;;11.97;100.00;102698.19;6184693;23;20052;-80
2021/08/31 05:13:18;;;;;;;21.85;11.23;;;;;;;11.97;100.00;102699.94;6186053;23;20001;-78
2021/08/31 05:15:44;;;;;;;27.02;12.68;;;;;;;11.97;100.00;102700.81;6184677;23;20001;-81
2021/08/31 05:18:09;;;;;;;26.40;12.50;;;;;;;12.00;100.00;102694.75;6184805;23;20051;-82
2021/08/31 05:20:35;;;;;;;26.40;12.77;;;;;;;12.04;100.00;102694.03;6184488;23;20009;-81
2021/08/31 05:23:01;;;;;;;31.73;12.75;;;;;;;12.07;100.00;102702.13;6185115;23;20052;-79
2021/08/31 05:25:27;;;;;;;27.00;12.32;;;;;;;12.11;100.00;102700.47;6184712;23;20020;-77
2021/08/31 05:28:08;;;;;;;31.52;14.10;;;;;;;12.14;100.00;102705.91;6158036;23;20009;-82
2021/08/31 05:30:34;;;;;;;28.83;13.57;;;;;;;12.18;100.00;102701.63;6184123;23;20040;-77
2021/08/31 05:32:59;;;;;;;33.35;14.43;;;;;;;12.21;100.00;102701.72;6184995;23;20384;-80
2021/08/31 05:35:24;;;;;;;29.65;14.23;;;;;;;12.25;100.00;102714.22;6185458;23;20005;-81
2021/08/31 05:37:50;;;;;;;28.90;13.75;;;;;;;12.31;100.00;102715.34;6185077;23;20008;-78
2021/08/31 05:40:16;;;;;;;41.72;16.98;;;;;;;12.37;100.00;102714.72;6184556;23;20080;-78
2021/08/31 05:42:42;;;;;;;40.13;15.82;;;;;;;12.45;100.00;102723.84;6185420;23;20080;-78
2021/08/31 05:45:08;;;;;;;32.42;15.30;;;;;;;12.54;100.00;102711.84;6184351;23;20031;-79
2021/08/31 05:47:34;;;;;;;35.60;16.13;;;;;;;12.62;100.00;102724.47;6184172;23;20005;-79
2021/08/31 05:49:59;;;;;;;34.95;15.07;;;;;;;12.69;100.00;102733.53;6184435;23;20377;-79
2021/08/31 05:52:24;;;;;;;33.65;14.25;;;;;;;12.72;100.00;102738.03;6184362;23;19997;-82
2021/08/31 05:54:50;;;;;;;34.35;15.40;;;;;;;12.77;100.00;102737.38;6185006;23;20009;-85
2021/08/31 05:57:15;;;;;;;28.25;15.15;;;;;;;12.80;100.00;102737.50;6157918;23;20431;-85
2021/08/31 05:59:41;;;;;;;38.65;15.75;;;;;;;12.87;100.00;102745.66;6157653;23;20474;-82
2021/08/31 06:02:10;;;;;;;38.53;15.07;;;;;;;12.93;100.00;102745.91;6179820;23;20013;-81
2021/08/31 06:04:37;;;;;;;33.03;15.30;;;;;;;13.00;100.00;102745.28;6184946;23;20005;-83
2021/08/31 06:07:09;;;;;;;34.22;14.85;;;;;;;13.06;100.00;102753.44;6185324;23;20084;-80
2021/08/31 06:09:37;;;;;;;37.22;14.10;;;;;;;13.18;100.00;102752.97;6185545;23;20009;-81
2021/08/31 06:12:11;;;;;;;32.80;14.65;;;;;;;13.28;100.00;102757.75;6186405;23;20352;-83
2021/08/31 06:14:57;;;;;;;34.28;13.02;;;;;;;13.37;100.00;102756.31;6186961;23;20447;-82
2021/08/31 06:17:23;;;;;;;28.63;13.95;;;;;;;13.45;100.00;102755.75;6186576;23;20013;-79
2021/08/31 06:20:09;;;;;;;31.55;13.07;;;;;;;13.53;100.00;102761.31;6185007;23;20496;-81
2021/08/31 06:22:54;;;;;;;34.72;13.20;;;;;;;13.63;100.00;102760.78;6183488;23;20052;-80
2021/08/31 06:25:20;;;;;;;26.98;11.32;;;;;;;13.70;100.00;102758.34;6185775;23;20057;-87
2021/08/31 06:27:45;;;;;;;24.55;11.45;;;;;;;13.79;100.00;102770.13;6186021;23;20425;-84
2021/08/31 06:30:31;;;;;;;35.70;10.95;;;;;;;13.91;100.00;102766.13;6175692;23;20084;-79
2021/08/31 06:32:56;;;;;;;28.23;10.90;;;;;;;14.01;100.00;102768.22;6183514;23;20082;-82
2021/08/31 06:35:22;;;;;;;25.70;10.45;;;;;;;14.10;100.00;102765.00;6183846;23;20046;-78
2021/08/31 06:37:47;;;;;;;22.88;10.02;;;;;;;14.21;100.00;102766.22;6184394;23;20023;-84
2021/08/31 06:40:13;;;;;;;28.88;10.15;;;;;;;14.35;100.00;102769.31;6184897;23;20052;-83
2021/08/31 06:42:38;;;;;;;27.27;8.85;;;;;;;14.45;100.00;102766.13;6184909;23;20028;-77
2021/08/31 06:45:24;;;;;;;27.42;8.43;;;;;;;14.59;100.00;102761.25;6184389;23;20011;-81
2021/08/31 06:47:50;;;;;;;22.38;8.57;;;;;;;14.83;100.00;102769.06;6174784;23;20441;-82
2021/08/31 06:50:16;;;;;;;21.15;7.88;;;;;;;14.99;100.00;102773.09;6181071;23;20476;-83
2021/08/31 06:52:44;;;;;;;23.95;8.10;;;;;;;15.14;99.22;102769.97;6180106;23;20421;-80
2021/08/31 06:55:12;;;;;;;22.45;7.30;;;;;;;15.32;99.41;102774.91;6179185;23;20428;-80
2021/08/31 06:57:38;;;;;;;10.85;6.03;;;;;;;15.49;97.92;102767.41;6181725;23;20093;-78
2021/08/31 07:00:23;;;;;;;19.52;6.40;;;;;;;15.61;96.80;102772.16;6180741;23;20035;-80
2021/08/31 07:03:09;;;;;;;19.48;6.22;;;;;;;15.71;94.98;102765.34;6175289;23;20062;-78
2021/08/31 07:05:34;;;;;;;25.92;6.30;;;;;;;15.80;94.15;102764.69;6176986;23;20455;-79
2021/08/31 07:08:00;;;;;;;20.30;5.90;;;;;;;15.83;94.26;102768.34;6172007;23;20005;-78
2021/08/31 07:10:25;;;;;;;21.20;5.75;;;;;;;15.92;94.57;102766.78;6179794;23;20385;-80
2021/08/31 07:12:51;;;;;;;16.67;5.57;;;;;;;15.96;93.89;102763.34;6179642;23;20080;-80
2021/08/31 07:15:16;;;;;;;22.48;6.60;;;;;;;16.02;93.91;102763.50;6155630;23;20013;-82
2021/08/31 07:17:42;;;;;;;16.60;5.80;;;;;;;16.10;93.48;102769.91;6180028;23;20001;-85
2021/08/31 07:20:08;;;;;;;18.30;5.18;;;;;;;16.24;94.17;102778.19;6180060;23;20024;-79
2021/08/31 07:22:34;;;;;;;19.75;6.45;;;;;;;16.27;91.40;102770.28;6178922;23;20352;-80
2021/08/31 07:24:59;;;;;;;21.33;5.78;;;;;;;16.34;91.73;102766.03;6151296;23;20023;-80
2021/08/31 07:27:25;;;;;;;19.42;6.35;;;;;;;16.46;93.10;102779.59;6176266;23;20013;-79
2021/08/31 07:29:50;;;;;;;20.98;5.65;;;;;;;16.55;91.51;102770.03;6180955;23;20031;-83
2021/08/31 07:32:16;;;;;;;15.57;5.70;;;;;;;16.65;90.60;102766.72;6175619;23;20443;-80
2021/08/31 07:34:42;;;;;;;15.20;4.90;;;;;;;16.74;89.57;102766.94;6181385;23;20484;-87
2021/08/31 07:37:07;;;;;;;19.85;5.53;;;;;;;16.89;90.96;102776.09;6183032;23;20005;-82
2021/08/31 07:39:33;;;;;;;17.08;5.50;;;;;;;16.96;89.21;102773.63;6183121;23;20013;-84
2021/08/31 07:41:59;;;;;;;17.45;5.13;;;;;;;16.97;86.78;102764.81;6178312;23;20012;-79
2021/08/31 07:44:25;;;;;;;18.23;5.05;;;;;;;17.06;87.15;102769.41;6178323;23;20017;-83
2021/08/31 07:46:51;;;;;;;15.85;5.13;;;;;;;17.11;86.92;102773.06;6179602;23;20450;-83
2021/08/31 07:49:26;;;;;;;19.23;4.82;;;;;;;17.16;85.35;102770.50;6182287;23;20072;-83
2021/08/31 07:51:52;;;;;;;18.73;5.53;;;;;;;17.21;85.40;102771.47;6182196;23;20060;-84
2021/08/31 07:54:17;;;;;;;18.35;5.18;;;;;;;17.28;85.99;102773.41;6181779;23;20008;-84
2021/08/31 07:56:43;;;;;;;18.67;5.00;;;;;;;17.33;83.86;102757.53;6183508;23;20084;-83
2021/08/31 07:59:17;;;;;;;19.48;5.65;;;;;;;17.40;84.43;102770.06;6183512;23;20061;-82
2021/08/31 08:01:42;;;;;;;19.65;4.80;;;;;;;17.44;82.52;102769.25;6174475;23;20032;-84
2021/08/31 08:04:08;;;;;;;20.52;4.35;;;;;;;17.49;82.91;102767.59;6182285;23;20314;-81
2021/08/31 08:06:34;;;;;;;18.77;4.50;;;;;;;17.48;82.08;102771.09;6180885;23;20439;-79
2021/08/31 08:09:00;;;;;;;11.50;4.40;;;;;;;17.53;82.35;102769.44;6182121;23;20092;-81
2021/08/31 08:11:25;;;;;;;16.50;4.78;;;;;;;17.62;82.45;102774.03;6182607;23;20023;-83
2021/08/31 08:13:51;;;;;;;10.80;4.38;;;;;;;17.64;81.18;102774.06;6184173;23;20359;-84
2021/08/31 08:16:16;;;;;;;14.60;4.28;;;;;;;17.64;80.86;102779.41;6183312;23;20016;-81
2021/08/31 08:18:42;;;;;;;16.30;4.40;;;;;;;17.78;80.95;102788.50;6183994;23;20409;-83
2021/08/31 08:21:07;;;;;;;13.95;4.18;;;;;;;17.99;82.42;102788.03;6183597;23;20005;-83
2021/08/31 08:23:33;;;;;;;15.45;4.10;;;;;;;18.10;78.07;102774.88;6182503;23;20384;-85
2021/08/31 08:25:59;;;;;;;14.60;4.55;;;;;;;18.15;77.78;102778.53;6183662;23;20012;-83
2021/08/31 08:28:27;;;;;;;14.75;4.30;;;;;;;18.11;76.91;102782.03;6183029;23;20321;-86
2021/08/31 08:30:53;;;;;;;16.88;4.72;;;;;;;18.01;77.12;102780.06;6183857;23;20001;-82
2021/08/31 08:33:38;;;;;;;13.88;4.10;;;;;;;17.99;76.38;102782.72;6182149;23;20028;-80
2021/08/31 08:36:05;;;;;;;15.20;4.32;;;;;;;17.98;77.64;102785.34;6182435;23;20110;-85
2021/08/31 08:38:31;;;;;;;12.90;4.70;;;;;;;17.91;77.49;102783.44;6183281;23;20040;-83
2021/08/31 08:41:06;;;;;;;16.30;4.57;;;;;;;18.18;77.85;102780.34;6183682;23;20368;-85
2021/08/31 08:43:41;;;;;;;12.95;4.40;;;;;;;18.59;75.36;102788.06;6183832;23;20064;-83
2021/08/31 08:46:08;;;;;;;13.27;3.80;;;;;;;19.12;73.18;102772.78;6183534;23;20028;-80
2021/08/31 08:48:35;;;;;;;13.18;4.32;;;;;;;19.54;72.17;102775.03;6157125;23;20009;-85
2021/08/31 08:51:03;;;;;;;14.13;4.15;;;;;;;19.94;70.34;102768.28;6184314;23;20004;-83
2021/08/31 08:53:50;;;;;;;15.65;4.13;;;;;;;20.17;67.90;102764.03;6183351;23;20020;-85
2021/08/31 08:56:35;;;;;;;13.25;4.20;;;;;;;20.53;67.20;102770.50;6183092;23;20013;-86
2021/08/31 08:59:21;;;;;;;13.70;3.95;;;;;;;20.60;65.24;102766.06;6184255;23;20017;-82
2021/08/31 09:02:08;;;;;;;16.00;4.93;;;;;;;20.53;65.54;102770.50;6178737;23;20005;-82
2021/08/31 09:05:00;;;;;;;13.00;4.40;;;;;;;20.74;64.97;102758.19;6182012;23;20020;-83
2021/08/31 09:07:30;;;;;;;8.15;3.92;;;;;;;21.04;64.60;102772.59;6182656;23;20063;-82
2021/08/31 09:10:19;;;;;;;18.30;5.28;;;;;;;21.25;63.85;102776.22;6183790;23;20001;-87
2021/08/31 09:12:47;;;;;;;11.43;4.07;;;;;;;21.48;62.78;102777.16;6156814;23;20090;-82
2021/08/31 09:15:23;;;;;;;13.70;4.45;;;;;;;21.41;62.97;102772.69;6182104;23;20119;-80
2021/08/31 09:18:07;;;;;;;14.05;4.35;;;;;;;21.62;62.20;102770.94;6182750;23;20091;-90
2021/08/31 09:20:36;;;;;;;13.60;5.13;;;;;;;21.69;62.21;102786.13;6181709;23;20014;-82
2021/08/31 09:23:03;;;;;;;13.57;4.57;;;;;;;21.81;60.92;102777.22;6186064;23;20013;-81
2021/08/31 09:25:35;;;;;;;12.15;3.72;;;;;;;21.94;61.38;102781.69;6187916;23;20329;-84
2021/08/31 09:28:37;;;;;;;10.43;4.03;;;;;;;22.03;59.18;102779.00;6182853;23;20451;-84
2021/08/31 09:31:08;;;;;;;13.23;3.95;;;;;;;22.26;56.91;102767.38;6102137;23;20039;-81
2021/08/31 09:33:40;;;;;;;11.65;4.05;;;;;;;22.11;61.19;102781.69;6184236;23;20207;-88
2021/08/31 09:36:23;;;;;;;10.43;4.20;;;;;;;22.42;57.72;102765.56;6181840;23;20008;-83
2021/08/31 09:38:52;;;;;;;11.10;4.47;;;;;;;22.80;55.76;102763.69;6183690;23;20020;-83
2021/08/31 09:41:38;;;;;;;11.05;3.80;;;;;;;23.13;55.36;102769.81;6182446;23;20009;-80
2021/08/31 09:44:19;;;;;;;9.80;3.92;;;;;;;23.35;55.84;102770.59;6155475;23;20012;-87
2021/08/31 09:47:07;;;;;;;9.95;4.82;;;;;;;23.93;52.64;102757.66;6181931;23;20009;-84
2021/08/31 09:49:55;;;;;;;10.68;4.07;;;;;;;24.62;52.21;102769.53;6182517;23;20429;-86
2021/08/31 09:52:20;;;;;;;12.52;4.45;;;;;;;24.51;51.11;102765.16;6160828;23;20128;-81
2021/08/31 09:55:06;;;;;;;13.07;4.45;;;;;;;23.88;54.47;102769.34;6181696;23;20004;-81
2021/08/31 09:58:06;;;;;;;12.18;4.75;;;;;;;24.08;53.97;102765.59;6181894;23;20027;-79
2021/08/31 10:00:53;;;;;;;12.00;4.93;;;;;;;24.20;55.60;102784.31;6179307;23;20020;-78
2021/08/31 10:04:00;;;;;;;14.13;4.30;;;;;;;24.85;51.82;102769.25;6184168;23;20424;-84
2021/08/31 10:06:26;;;;;;;12.52;4.30;;;;;;;24.83;50.55;102763.88;6181461;23;20012;-83
2021/08/31 10:08:57;;;;;;;11.45;4.03;;;;;;;23.85;52.92;102760.41;6157141;23;20031;-83
2021/08/31 10:11:27;;;;;;;13.00;4.95;;;;;;;22.82;56.00;102781.56;6180718;23;20084;-86
2021/08/31 10:13:54;;;;;;;17.50;4.80;;;;;;;22.30;58.11;102795.97;6183899;23;20016;-84
2021/08/31 10:16:23;;;;;;;20.33;5.15;;;;;;;22.31;58.02;102800.44;6183255;23;20004;-86
2021/08/31 10:18:49;;;;;;;13.90;4.90;;;;;;;22.00;60.04;102810.28;6183505;23;20009;-82
2021/08/31 10:21:35;;;;;;;15.85;5.68;;;;;;;21.75;60.42;102804.03;6182192;23;20009;-86
2021/08/31 10:24:04;;;;;;;15.38;5.63;;;;;;;22.03;61.87;102819.22;6183683;23;20376;-82
2021/08/31 10:26:32;;;;;;;13.75;4.68;;;;;;;22.52;59.14;102810.28;6181756;23;20024;-86
2021/08/31 10:29:13;;;;;;;14.18;5.20;;;;;;;23.13;58.19;102802.03;6184386;23;20009;-83
2021/08/31 10:32:19;;;;;;;14.30;4.60;;;;;;;23.42;59.51;102801.91;6184701;23;20065;-88
2021/08/31 10:34:44;;;;;;;13.05;4.57;;;;;;;23.32;55.55;102789.41;6182488;23;20020;-86
2021/08/31 10:37:15;;;;;;;14.98;5.15;;;;;;;22.74;57.24;102794.13;6182700;23;20005;-83
2021/08/31 10:39:43;;;;;;;11.63;5.07;;;;;;;;;;6184103;23;20035;-85
2021/08/31 10:42:09;;;;;;;16.13;4.60;;;;;;;22.24;59.72;102814.75;6184794;23;20001;-84
2021/08/31 10:45:03;;;;;;;18.20;5.28;;;;;;;22.53;59.05;102817.44;6160137;23;20009;-78
2021/08/31 10:47:31;;;;;;;;;;;;;;;22.53;58.52;102814.75;6189672;23;20005;-83
2021/08/31 10:49:57;;;;;;;19.67;4.93;;;;;;;22.74;58.85;102810.22;6186947;23;20528;-89
2021/08/31 10:52:35;;;;;;;9.32;4.70;;;;;;;22.86;57.28;102804.81;6191239;23;20005;-84
2021/08/31 10:55:02;;;;;;;17.50;4.60;;;;;;;23.09;56.96;102806.53;6144224;23;20016;-83
2021/08/31 10:57:34;;;;;;;16.85;5.72;;;;;;;22.96;58.27;102804.78;6181330;23;20005;-84
2021/08/31 11:00:15;;;;;;;14.30;5.28;;;;;;;23.14;57.15;102807.44;6185296;23;20012;-87
2021/08/31 11:02:46;;;;;;;14.10;4.80;;;;;;;23.04;56.88;102802.97;6185824;23;20005;-87
2021/08/31 11:05:18;;;;;;;12.35;4.60;;;;;;;23.24;56.56;102809.16;6186719;23;20071;-87
2021/08/31 11:07:55;;;;;;;16.40;5.13;;;;;;;24.16;57.60;102809.44;6187334;23;20005;-86
2021/08/31 11:10:25;;;;;;;12.30;4.45;;;;;;;25.53;50.80;102806.97;6159944;23;20056;-80
2021/08/31 11:13:01;;;;;;;11.52;4.28;;;;;;;26.59;47.43;102788.06;6186682;23;20013;-85
2021/08/31 11:15:27;;;;;;;10.57;4.35;;;;;;;26.01;47.23;102787.31;6186227;23;20167;-86
2021/08/31 11:17:56;;;;;;;15.63;4.00;;;;;;;26.36;46.22;102798.44;6161098;23;20005;-88
2021/08/31 11:20:25;;;;;;;12.38;4.20;;;;;;;26.47;47.57;102787.44;6186730;23;19997;-82